sensor_id;sensor_type;location;lat;lon;timestamp;temperature;humidity
12233;DHT22;6179;51.748;8.728;2023-02-19T00:00:21;9.80;98.30
12233;DHT22;6179;51.748;8.728;2023-02-19T00:06:24;9.80;98.30
12233;DHT22;6179;51.748;8.728;2023-02-19T00:12:26;9.80;98.30
12233;DHT22;6179;51.748;8.728;2023-02-19T00:18:27;10.00;98.30
12233;DHT22;6179;51.748;8.728;2023-02-19T00:24:28;10.00;98.30
12233;DHT22;6179;51.748;8.728;2023-02-19T00:30:29;10.00;98.30
12233;DHT22;6179;51.748;8.728;2023-02-19T00:36:30;9.90;98.30
12233;DHT22;6179;51.748;8.728;2023-02-19T00:42:35;10.00;98.30
12233;DHT22;6179;51.748;8.728;2023-02-19T00:48:35;9.90;98.30
12233;DHT22;6179;51.748;8.728;2023-02-19T00:54:36;10.00;98.30
12233;DHT22;6179;51.748;8.728;2023-02-19T01:00:37;9.80;98.30
12233;DHT22;6179;51.748;8.728;2023-02-19T01:06:38;9.80;98.30
12233;DHT22;6179;51.748;8.728;2023-02-19T01:12:39;9.80;98.30
12233;DHT22;6179;51.748;8.728;2023-02-19T01:18:40;9.70;98.30
12233;DHT22;6179;51.748;8.728;2023-02-19T01:24:42;9.80;98.30
12233;DHT22;6179;51.748;8.728;2023-02-19T01:30:42;9.70;98.30
12233;DHT22;6179;51.748;8.728;2023-02-19T01:36:43;9.70;98.30
12233;DHT22;6179;51.748;8.728;2023-02-19T01:42:44;9.80;98.30
12233;DHT22;6179;51.748;8.728;2023-02-19T01:48:45;9.80;98.30
12233;DHT22;6179;51.748;8.728;2023-02-19T01:54:48;9.80;98.30
12233;DHT22;6179;51.748;8.728;2023-02-19T02:00:49;9.80;98.30
12233;DHT22;6179;51.748;8.728;2023-02-19T02:06:55;9.90;98.30
12233;DHT22;6179;51.748;8.728;2023-02-19T02:12:59;9.90;98.30
12233;DHT22;6179;51.748;8.728;2023-02-19T02:32:20;9.70;98.30
12233;DHT22;6179;51.748;8.728;2023-02-19T02:38:29;9.80;98.30
12233;DHT22;6179;51.748;8.728;2023-02-19T02:44:34;9.80;98.30
12233;DHT22;6179;51.748;8.728;2023-02-19T02:57:06;10.00;98.30
12233;DHT22;6179;51.748;8.728;2023-02-19T03:03:09;9.80;98.30
12233;DHT22;6179;51.748;8.728;2023-02-19T03:09:31;9.80;98.30
12233;DHT22;6179;51.748;8.728;2023-02-19T03:15:54;9.60;98.30
12233;DHT22;6179;51.748;8.728;2023-02-19T03:22:24;9.60;98.30
12233;DHT22;6179;51.748;8.728;2023-02-19T03:28:34;9.60;98.30
12233;DHT22;6179;51.748;8.728;2023-02-19T03:35:05;9.60;98.30
12233;DHT22;6179;51.748;8.728;2023-02-19T03:47:24;9.60;98.30
12233;DHT22;6179;51.748;8.728;2023-02-19T03:59:42;9.50;98.30
12233;DHT22;6179;51.748;8.728;2023-02-19T04:06:14;9.70;98.30
12233;DHT22;6179;51.748;8.728;2023-02-19T04:12:22;9.60;98.30
12233;DHT22;6179;51.748;8.728;2023-02-19T04:18:27;9.50;98.30
12233;DHT22;6179;51.748;8.728;2023-02-19T04:24:43;9.40;98.30
12233;DHT22;6179;51.748;8.728;2023-02-19T04:30:48;9.20;98.30
12233;DHT22;6179;51.748;8.728;2023-02-19T04:36:49;9.10;98.30
12233;DHT22;6179;51.748;8.728;2023-02-19T04:42:49;9.20;98.30
12233;DHT22;6179;51.748;8.728;2023-02-19T04:48:50;9.20;98.30
12233;DHT22;6179;51.748;8.728;2023-02-19T04:54:51;9.20;98.30
12233;DHT22;6179;51.748;8.728;2023-02-19T05:00:52;9.10;98.30
12233;DHT22;6179;51.748;8.728;2023-02-19T05:06:53;9.20;98.30
12233;DHT22;6179;51.748;8.728;2023-02-19T05:12:53;9.40;98.30
12233;DHT22;6179;51.748;8.728;2023-02-19T05:18:54;9.30;98.30
12233;DHT22;6179;51.748;8.728;2023-02-19T05:24:55;9.30;98.30
12233;DHT22;6179;51.748;8.728;2023-02-19T05:30:56;9.50;98.30
12233;DHT22;6179;51.748;8.728;2023-02-19T05:36:57;9.10;98.30
12233;DHT22;6179;51.748;8.728;2023-02-19T05:42:58;9.30;98.30
12233;DHT22;6179;51.748;8.728;2023-02-19T05:48:58;9.30;98.30
12233;DHT22;6179;51.748;8.728;2023-02-19T05:54:59;9.20;98.30
12233;DHT22;6179;51.748;8.728;2023-02-19T06:01:00;9.00;98.30
12233;DHT22;6179;51.748;8.728;2023-02-19T06:07:01;8.90;98.30
12233;DHT22;6179;51.748;8.728;2023-02-19T06:13:01;9.00;98.30
12233;DHT22;6179;51.748;8.728;2023-02-19T06:19:03;9.00;98.30
12233;DHT22;6179;51.748;8.728;2023-02-19T06:25:04;8.90;98.30
12233;DHT22;6179;51.748;8.728;2023-02-19T06:31:08;9.00;98.30
12233;DHT22;6179;51.748;8.728;2023-02-19T06:37:09;9.10;98.30
12233;DHT22;6179;51.748;8.728;2023-02-19T06:43:10;8.90;98.30
12233;DHT22;6179;51.748;8.728;2023-02-19T06:49:11;8.90;98.30
12233;DHT22;6179;51.748;8.728;2023-02-19T06:55:11;8.90;98.30
12233;DHT22;6179;51.748;8.728;2023-02-19T07:01:12;9.10;98.30
12233;DHT22;6179;51.748;8.728;2023-02-19T07:07:13;9.20;98.30
12233;DHT22;6179;51.748;8.728;2023-02-19T07:13:14;9.30;98.30
12233;DHT22;6179;51.748;8.728;2023-02-19T07:19:15;9.30;98.30
12233;DHT22;6179;51.748;8.728;2023-02-19T07:25:16;9.20;98.30
12233;DHT22;6179;51.748;8.728;2023-02-19T07:31:18;8.90;98.30
12233;DHT22;6179;51.748;8.728;2023-02-19T07:37:20;9.00;98.30
12233;DHT22;6179;51.748;8.728;2023-02-19T07:43:22;9.20;98.30
12233;DHT22;6179;51.748;8.728;2023-02-19T07:49:24;9.10;98.30
12233;DHT22;6179;51.748;8.728;2023-02-19T07:55:25;9.10;98.30
12233;DHT22;6179;51.748;8.728;2023-02-19T08:01:25;8.70;98.30
12233;DHT22;6179;51.748;8.728;2023-02-19T08:07:45;8.00;98.30
12233;DHT22;6179;51.748;8.728;2023-02-19T08:13:47;7.40;98.30
12233;DHT22;6179;51.748;8.728;2023-02-19T08:19:49;7.40;98.30
12233;DHT22;6179;51.748;8.728;2023-02-19T08:25:51;7.20;98.30
12233;DHT22;6179;51.748;8.728;2023-02-19T08:31:53;7.20;98.30
12233;DHT22;6179;51.748;8.728;2023-02-19T08:37:55;7.30;98.30
12233;DHT22;6179;51.748;8.728;2023-02-19T08:43:57;7.30;98.30
12233;DHT22;6179;51.748;8.728;2023-02-19T08:49:58;7.40;98.30
12233;DHT22;6179;51.748;8.728;2023-02-19T08:56:02;7.60;98.30
12233;DHT22;6179;51.748;8.728;2023-02-19T09:02:13;7.50;98.30
12233;DHT22;6179;51.748;8.728;2023-02-19T09:08:14;7.20;98.30
12233;DHT22;6179;51.748;8.728;2023-02-19T09:14:15;7.40;98.30
12233;DHT22;6179;51.748;8.728;2023-02-19T09:20:16;7.30;98.30
12233;DHT22;6179;51.748;8.728;2023-02-19T09:26:16;7.60;98.30
12233;DHT22;6179;51.748;8.728;2023-02-19T09:32:17;7.30;98.30
12233;DHT22;6179;51.748;8.728;2023-02-19T09:38:18;7.30;98.30
12233;DHT22;6179;51.748;8.728;2023-02-19T09:44:32;7.60;98.30
12233;DHT22;6179;51.748;8.728;2023-02-19T09:50:40;7.90;98.30
12233;DHT22;6179;51.748;8.728;2023-02-19T09:56:45;7.70;98.30
12233;DHT22;6179;51.748;8.728;2023-02-19T10:02:46;7.80;98.30
12233;DHT22;6179;51.748;8.728;2023-02-19T10:08:59;7.40;98.30
12233;DHT22;6179;51.748;8.728;2023-02-19T10:15:33;7.40;98.30
12233;DHT22;6179;51.748;8.728;2023-02-19T10:21:38;7.70;98.30
12233;DHT22;6179;51.748;8.728;2023-02-19T10:27:39;8.00;98.30
12233;DHT22;6179;51.748;8.728;2023-02-19T10:33:49;7.70;98.30
12233;DHT22;6179;51.748;8.728;2023-02-19T10:39:51;7.60;98.30
12233;DHT22;6179;51.748;8.728;2023-02-19T10:45:52;7.70;98.30
12233;DHT22;6179;51.748;8.728;2023-02-19T10:51:55;8.00;98.30
12233;DHT22;6179;51.748;8.728;2023-02-19T10:58:20;7.70;98.30
12233;DHT22;6179;51.748;8.728;2023-02-19T11:04:31;8.10;98.30
12233;DHT22;6179;51.748;8.728;2023-02-19T11:10:41;8.40;98.30
12233;DHT22;6179;51.748;8.728;2023-02-19T11:16:47;8.20;98.30
12233;DHT22;6179;51.748;8.728;2023-02-19T11:22:57;8.30;98.30
12233;DHT22;6179;51.748;8.728;2023-02-19T11:29:16;8.40;98.30
12233;DHT22;6179;51.748;8.728;2023-02-19T11:35:22;8.20;98.30
12233;DHT22;6179;51.748;8.728;2023-02-19T11:54:08;8.60;98.30
12233;DHT22;6179;51.748;8.728;2023-02-19T12:00:30;8.60;98.30
12233;DHT22;6179;51.748;8.728;2023-02-19T12:07:02;8.40;98.30
12233;DHT22;6179;51.748;8.728;2023-02-19T12:38:31;8.70;97.30
12233;DHT22;6179;51.748;8.728;2023-02-19T12:44:49;8.90;95.60
12233;DHT22;6179;51.748;8.728;2023-02-19T12:51:01;8.90;94.40
12233;DHT22;6179;51.748;8.728;2023-02-19T12:57:26;8.80;97.00
12233;DHT22;6179;51.748;8.728;2023-02-19T13:03:47;9.30;95.60
12233;DHT22;6179;51.748;8.728;2023-02-19T13:10:11;9.20;95.50
12233;DHT22;6179;51.748;8.728;2023-02-19T13:16:36;8.60;96.80
12233;DHT22;6179;51.748;8.728;2023-02-19T13:36:12;9.40;94.70
12233;DHT22;6179;51.748;8.728;2023-02-19T13:42:32;8.80;96.70
12233;DHT22;6179;51.748;8.728;2023-02-19T13:48:37;9.20;94.40
12233;DHT22;6179;51.748;8.728;2023-02-19T13:54:39;10.00;90.30
12233;DHT22;6179;51.748;8.728;2023-02-19T14:00:51;9.60;93.60
12233;DHT22;6179;51.748;8.728;2023-02-19T14:13:07;9.40;91.30
12233;DHT22;6179;51.748;8.728;2023-02-19T14:19:38;9.30;94.20
12233;DHT22;6179;51.748;8.728;2023-02-19T14:25:44;8.50;94.50
12233;DHT22;6179;51.748;8.728;2023-02-19T14:31:48;8.50;94.30
12233;DHT22;6179;51.748;8.728;2023-02-19T14:37:50;9.10;92.90
12233;DHT22;6179;51.748;8.728;2023-02-19T14:43:55;8.80;93.00
12233;DHT22;6179;51.748;8.728;2023-02-19T14:50:01;8.40;96.70
12233;DHT22;6179;51.748;8.728;2023-02-19T14:56:13;9.00;96.10
12233;DHT22;6179;51.748;8.728;2023-02-19T15:02:21;8.70;97.50
12233;DHT22;6179;51.748;8.728;2023-02-19T15:08:28;9.20;95.10
12233;DHT22;6179;51.748;8.728;2023-02-19T15:14:33;9.20;95.10
12233;DHT22;6179;51.748;8.728;2023-02-19T15:20:36;9.10;95.00
12233;DHT22;6179;51.748;8.728;2023-02-19T15:26:40;9.30;93.40
12233;DHT22;6179;51.748;8.728;2023-02-19T15:32:51;8.80;96.90
12233;DHT22;6179;51.748;8.728;2023-02-19T15:38:59;8.80;97.60
12233;DHT22;6179;51.748;8.728;2023-02-19T15:45:24;9.00;96.00
12233;DHT22;6179;51.748;8.728;2023-02-19T16:04:47;8.60;97.90
12233;DHT22;6179;51.748;8.728;2023-02-19T16:10:53;9.00;96.30
12233;DHT22;6179;51.748;8.728;2023-02-19T16:23:14;9.00;96.20
12233;DHT22;6179;51.748;8.728;2023-02-19T16:29:39;9.20;95.90
12233;DHT22;6179;51.748;8.728;2023-02-19T16:35:40;9.20;95.70
12233;DHT22;6179;51.748;8.728;2023-02-19T16:47:48;8.90;98.10
12233;DHT22;6179;51.748;8.728;2023-02-19T16:53:50;8.50;98.30
12233;DHT22;6179;51.748;8.728;2023-02-19T16:59:51;8.30;98.30
12233;DHT22;6179;51.748;8.728;2023-02-19T17:05:52;8.30;98.30
12233;DHT22;6179;51.748;8.728;2023-02-19T17:11:53;8.10;98.30
12233;DHT22;6179;51.748;8.728;2023-02-19T17:17:53;7.90;98.30
12233;DHT22;6179;51.748;8.728;2023-02-19T17:23:54;7.70;98.30
12233;DHT22;6179;51.748;8.728;2023-02-19T17:29:56;7.90;98.30
12233;DHT22;6179;51.748;8.728;2023-02-19T17:35:57;7.80;98.30
12233;DHT22;6179;51.748;8.728;2023-02-19T17:41:57;7.80;98.30
12233;DHT22;6179;51.748;8.728;2023-02-19T17:47:59;7.70;98.30
12233;DHT22;6179;51.748;8.728;2023-02-19T17:54:00;7.80;98.30
12233;DHT22;6179;51.748;8.728;2023-02-19T18:00:01;7.80;98.30
12233;DHT22;6179;51.748;8.728;2023-02-19T18:06:04;7.80;98.30
12233;DHT22;6179;51.748;8.728;2023-02-19T18:12:05;7.20;98.30
12233;DHT22;6179;51.748;8.728;2023-02-19T18:18:06;7.30;98.30
12233;DHT22;6179;51.748;8.728;2023-02-19T18:24:09;7.20;98.30
12233;DHT22;6179;51.748;8.728;2023-02-19T18:30:10;7.30;98.30
12233;DHT22;6179;51.748;8.728;2023-02-19T18:36:12;7.40;98.30
12233;DHT22;6179;51.748;8.728;2023-02-19T18:42:13;7.40;98.30
12233;DHT22;6179;51.748;8.728;2023-02-19T18:48:14;7.30;98.30
12233;DHT22;6179;51.748;8.728;2023-02-19T18:54:15;7.10;98.30
12233;DHT22;6179;51.748;8.728;2023-02-19T19:00:19;7.50;98.30
12233;DHT22;6179;51.748;8.728;2023-02-19T19:06:22;7.70;98.30
12233;DHT22;6179;51.748;8.728;2023-02-19T19:12:22;7.70;98.30
12233;DHT22;6179;51.748;8.728;2023-02-19T19:18:23;7.60;98.30
12233;DHT22;6179;51.748;8.728;2023-02-19T19:24:24;7.10;98.30
12233;DHT22;6179;51.748;8.728;2023-02-19T19:30:25;7.30;98.30
12233;DHT22;6179;51.748;8.728;2023-02-19T19:36:26;7.60;98.30
12233;DHT22;6179;51.748;8.728;2023-02-19T19:42:27;7.90;98.30
12233;DHT22;6179;51.748;8.728;2023-02-19T19:48:28;7.40;98.30
12233;DHT22;6179;51.748;8.728;2023-02-19T19:54:29;7.40;98.30
12233;DHT22;6179;51.748;8.728;2023-02-19T20:00:29;7.80;98.30
12233;DHT22;6179;51.748;8.728;2023-02-19T20:06:31;7.50;98.30
12233;DHT22;6179;51.748;8.728;2023-02-19T20:12:32;7.50;98.30
12233;DHT22;6179;51.748;8.728;2023-02-19T20:18:33;7.50;98.30
12233;DHT22;6179;51.748;8.728;2023-02-19T20:24:34;7.60;98.30
12233;DHT22;6179;51.748;8.728;2023-02-19T20:30:35;7.30;98.30
12233;DHT22;6179;51.748;8.728;2023-02-19T20:36:42;7.40;98.30
12233;DHT22;6179;51.748;8.728;2023-02-19T20:42:43;7.30;98.30
12233;DHT22;6179;51.748;8.728;2023-02-19T20:48:44;7.20;98.30
12233;DHT22;6179;51.748;8.728;2023-02-19T20:54:45;7.10;98.30
12233;DHT22;6179;51.748;8.728;2023-02-19T21:00:47;7.30;98.30
12233;DHT22;6179;51.748;8.728;2023-02-19T21:06:48;7.10;98.30
12233;DHT22;6179;51.748;8.728;2023-02-19T21:12:51;7.00;98.30
12233;DHT22;6179;51.748;8.728;2023-02-19T21:18:54;7.30;98.30
12233;DHT22;6179;51.748;8.728;2023-02-19T21:24:54;7.00;98.30
12233;DHT22;6179;51.748;8.728;2023-02-19T21:30:55;6.70;98.30
12233;DHT22;6179;51.748;8.728;2023-02-19T21:36:56;7.10;98.30
12233;DHT22;6179;51.748;8.728;2023-02-19T21:42:57;6.90;98.30
12233;DHT22;6179;51.748;8.728;2023-02-19T21:48:58;7.00;98.30
12233;DHT22;6179;51.748;8.728;2023-02-19T21:55:00;7.10;98.30
12233;DHT22;6179;51.748;8.728;2023-02-19T22:01:00;7.30;98.30
12233;DHT22;6179;51.748;8.728;2023-02-19T22:07:04;7.10;98.30
12233;DHT22;6179;51.748;8.728;2023-02-19T22:13:05;7.10;98.30
12233;DHT22;6179;51.748;8.728;2023-02-19T22:19:05;6.90;98.30
12233;DHT22;6179;51.748;8.728;2023-02-19T22:25:06;6.80;98.30
12233;DHT22;6179;51.748;8.728;2023-02-19T22:31:08;6.70;98.30
12233;DHT22;6179;51.748;8.728;2023-02-19T22:37:09;6.70;98.30
12233;DHT22;6179;51.748;8.728;2023-02-19T22:43:10;6.70;98.30
12233;DHT22;6179;51.748;8.728;2023-02-19T22:49:10;6.60;98.30
12233;DHT22;6179;51.748;8.728;2023-02-19T22:55:11;6.80;98.30
12233;DHT22;6179;51.748;8.728;2023-02-19T23:01:13;6.80;98.30
12233;DHT22;6179;51.748;8.728;2023-02-19T23:07:14;6.50;98.30
12233;DHT22;6179;51.748;8.728;2023-02-19T23:13:15;6.40;98.30
12233;DHT22;6179;51.748;8.728;2023-02-19T23:19:15;6.60;98.30
12233;DHT22;6179;51.748;8.728;2023-02-19T23:25:16;6.60;98.30
12233;DHT22;6179;51.748;8.728;2023-02-19T23:31:17;6.40;98.30
12233;DHT22;6179;51.748;8.728;2023-02-19T23:37:18;6.30;98.30
12233;DHT22;6179;51.748;8.728;2023-02-19T23:43:19;6.50;98.30
12233;DHT22;6179;51.748;8.728;2023-02-19T23:49:20;6.40;98.30
12233;DHT22;6179;51.748;8.728;2023-02-19T23:55:22;6.10;98.30
